SBKG/CPV METAR and TAF weather

Enter ICAO airport designator
Station Type Date Time Source
SBKG METAR 2019/04/22 18:00 UTC NOAA

SBKG 221800Z 10009KT CAVOK 30/19 Q1012


Station Type Date Time Source
SBKG Decoded METAR 2019/04/22 18:00 UTC NOAA

Campina Grande, Brazil (SBKG) 07-13S 035-53W
Apr 22, 2019 - 02:00 PM EDT / 2019.04.22 1800 UTC
Wind: from the E (100 degrees) at 10 MPH (9 KT):0
Visibility: greater than 7 mile(s):0
Temperature: 86 F (30 C)
Dew Point: 66 F (19 C)
Relative Humidity: 51%
Pressure (altimeter): 29.88 in. Hg (1012 hPa)
ob: SBKG 221800Z 10009KT CAVOK 30/19 Q1012
cycle: 18

Station Type Date Time Source
SBKG TAF 2019/04/22 18:33 UTC NOAA

TAF SBKG 221600Z 2218/2306 11010KT CAVOK TX27/2218Z TN22/2305Z PROB40
TEMPO 2304/2306 5000 BR SCT007 BKN015
RMK PEQ

Example: see airport list